createdAt,value
2022-09-18T00:01:21.171Z,9.50
2022-09-18T00:04:01.771Z,9.40
2022-09-18T00:06:38.539Z,9.40
2022-09-18T00:09:15.286Z,9.47
2022-09-18T00:11:49.506Z,9.34
2022-09-18T00:14:33.414Z,9.32
2022-09-18T00:17:09.367Z,9.37
2022-09-18T00:19:47.610Z,9.34
2022-09-18T00:22:23.278Z,9.37
2022-09-18T00:24:56.758Z,9.37
2022-09-18T00:27:38.159Z,9.32
2022-09-18T00:30:19.590Z,9.36
2022-09-18T00:32:57.940Z,9.42
2022-09-18T00:35:29.353Z,9.37
2022-09-18T00:38:05.636Z,9.37
2022-09-18T00:40:45.228Z,9.34
2022-09-18T00:43:37.048Z,9.32
2022-09-18T00:46:33.972Z,9.31
2022-09-18T00:49:18.967Z,9.36
2022-09-18T00:51:55.768Z,9.40
2022-09-18T00:54:55.106Z,9.35
2022-09-18T00:57:41.387Z,9.41
2022-09-18T01:00:14.832Z,9.44
2022-09-18T01:02:49.725Z,9.47
2022-09-18T01:05:46.706Z,9.47
2022-09-18T01:08:43.313Z,9.48
2022-09-18T01:12:07.867Z,9.50
2022-09-18T01:15:07.568Z,9.49
2022-09-18T01:18:00.199Z,9.50
2022-09-18T01:20:49.484Z,9.48
2022-09-18T01:23:40.915Z,9.49
2022-09-18T01:26:32.324Z,9.53
2022-09-18T01:29:28.522Z,9.46
2022-09-18T01:32:04.463Z,9.60
2022-09-18T01:35:09.839Z,9.61
2022-09-18T01:38:02.466Z,9.55
2022-09-18T01:40:49.418Z,9.54
2022-09-18T01:43:32.562Z,9.54
2022-09-18T01:46:12.362Z,9.52
2022-09-18T01:48:50.928Z,9.44
2022-09-18T01:51:36.376Z,9.45
2022-09-18T01:54:24.468Z,9.32
2022-09-18T01:57:21.419Z,9.33
2022-09-18T02:00:02.833Z,9.30
2022-09-18T02:03:02.374Z,9.24
2022-09-18T02:05:56.634Z,9.18
2022-09-18T02:08:48.304Z,9.12
2022-09-18T02:11:32.384Z,9.06
2022-09-18T02:14:08.175Z,9.01
2022-09-18T02:17:15.978Z,9.06
2022-09-18T02:20:16.037Z,9.00
2022-09-18T02:22:56.960Z,9.01
2022-09-18T02:25:46.059Z,8.91
2022-09-18T02:28:23.348Z,8.87
2022-09-18T02:31:01.411Z,8.95
2022-09-18T02:33:37.063Z,8.95
2022-09-18T02:36:54.523Z,8.95
2022-09-18T02:39:54.473Z,8.99
2022-09-18T02:43:01.366Z,8.97
2022-09-18T02:45:49.487Z,8.96
2022-09-18T02:48:41.686Z,8.77
2022-09-18T02:51:21.140Z,8.81
2022-09-18T02:53:57.745Z,8.77
2022-09-18T02:56:45.571Z,8.78
2022-09-18T02:59:34.786Z,8.74
2022-09-18T03:02:02.503Z,8.74
2022-09-18T03:07:41.466Z,8.72
2022-09-18T03:10:13.988Z,8.74
2022-09-18T03:12:46.264Z,8.73
2022-09-18T03:15:16.538Z,8.73
2022-09-18T03:17:49.061Z,8.74
2022-09-18T03:20:27.356Z,8.71
2022-09-18T03:22:59.247Z,8.70
2022-09-18T03:25:28.209Z,8.63
2022-09-18T03:28:03.985Z,8.62
2022-09-18T03:30:45.011Z,8.58
2022-09-18T03:33:19.007Z,8.56
2022-09-18T03:35:57.247Z,8.50
2022-09-18T03:38:34.554Z,8.53
2022-09-18T03:41:10.302Z,8.60
2022-09-18T03:43:46.892Z,8.58
2022-09-18T03:46:25.876Z,8.51
2022-09-18T03:49:09.339Z,8.56
2022-09-18T03:51:54.530Z,8.56
2022-09-18T03:54:32.354Z,8.46
2022-09-18T03:57:27.342Z,8.48
2022-09-18T04:00:28.681Z,8.48
2022-09-18T04:03:16.164Z,8.52
2022-09-18T04:06:20.588Z,8.43
2022-09-18T04:09:24.392Z,8.45
2022-09-18T04:12:10.144Z,8.44
2022-09-18T04:14:49.164Z,8.43
2022-09-18T04:17:31.030Z,8.36
2022-09-18T04:20:09.639Z,8.34
2022-09-18T04:22:44.537Z,8.38
2022-09-18T04:25:16.538Z,8.46
2022-09-18T04:28:01.492Z,8.42
2022-09-18T04:30:37.980Z,8.47
2022-09-18T04:33:18.682Z,8.41
2022-09-18T04:35:54.281Z,8.40
2022-09-18T04:38:27.531Z,8.33
2022-09-18T04:41:00.946Z,8.41
2022-09-18T04:43:42.187Z,8.43
2022-09-18T04:46:11.089Z,8.43
2022-09-18T04:48:51.200Z,8.44
2022-09-18T04:51:37.147Z,8.45
2022-09-18T04:54:20.762Z,8.46
2022-09-18T04:56:53.916Z,8.50
2022-09-18T04:59:37.300Z,8.46
2022-09-18T05:02:08.537Z,8.45
2022-09-18T05:04:52.275Z,8.55
2022-09-18T05:07:36.106Z,8.52
2022-09-18T05:10:30.315Z,8.57
2022-09-18T05:13:06.326Z,8.34
2022-09-18T05:15:38.736Z,8.38
2022-09-18T05:18:14.880Z,8.36
2022-09-18T05:20:47.507Z,8.37
2022-09-18T05:23:26.349Z,8.53
2022-09-18T05:26:03.546Z,8.61
2022-09-18T05:28:41.061Z,8.74
2022-09-18T05:31:19.545Z,8.81
2022-09-18T05:33:47.654Z,8.85
2022-09-18T05:36:18.493Z,9.08
2022-09-18T05:38:59.302Z,9.28
2022-09-18T05:41:37.588Z,9.38
2022-09-18T05:44:15.706Z,9.49
2022-09-18T05:46:51.764Z,9.59
2022-09-18T05:49:32.927Z,9.80
2022-09-18T05:52:05.639Z,9.86
2022-09-18T05:54:41.575Z,10.04
2022-09-18T05:57:21.475Z,10.08
2022-09-18T06:00:03.341Z,10.21
2022-09-18T06:02:48.693Z,10.26
2022-09-18T06:05:27.988Z,10.21
2022-09-18T06:08:07.665Z,10.21
2022-09-18T06:10:49.322Z,10.40
2022-09-18T06:13:24.873Z,10.69
2022-09-18T06:16:08.687Z,10.77
2022-09-18T06:19:00.981Z,10.83
2022-09-18T06:21:38.713Z,10.94
2022-09-18T06:24:11.989Z,11.07
2022-09-18T06:26:50.631Z,11.13
2022-09-18T06:29:31.321Z,11.38
2022-09-18T06:32:16.346Z,11.37
2022-09-18T06:34:45.315Z,11.50
2022-09-18T06:37:25.144Z,11.74
2022-09-18T06:40:09.235Z,11.92
2022-09-18T06:43:15.967Z,12.24
2022-09-18T06:46:10.826Z,12.21
2022-09-18T06:48:48.867Z,11.85
2022-09-18T06:51:24.541Z,11.78
2022-09-18T06:54:19.651Z,11.49
2022-09-18T06:56:58.079Z,11.45
2022-09-18T06:59:41.859Z,11.55
2022-09-18T07:02:19.752Z,11.49
2022-09-18T07:04:57.271Z,11.31
2022-09-18T07:07:40.650Z,11.29
2022-09-18T07:10:22.324Z,11.32
2022-09-18T07:12:50.109Z,11.23
2022-09-18T07:15:28.123Z,11.30
2022-09-18T07:18:10.895Z,11.17
2022-09-18T07:20:46.712Z,11.15
2022-09-18T07:23:33.195Z,11.15
2022-09-18T07:26:16.119Z,11.02
2022-09-18T07:28:55.495Z,10.94
2022-09-18T07:31:44.208Z,11.00
2022-09-18T07:34:23.961Z,10.93
2022-09-18T07:36:56.224Z,11.14
2022-09-18T07:39:34.090Z,11.17
2022-09-18T07:42:22.275Z,11.55
2022-09-18T07:45:00.694Z,12.01
2022-09-18T07:47:42.818Z,12.38
2022-09-18T07:50:23.740Z,12.06
2022-09-18T07:52:54.777Z,11.81
2022-09-18T07:55:37.031Z,11.47
2022-09-18T07:58:10.713Z,11.69
2022-09-18T08:01:18.268Z,12.20
2022-09-18T08:03:58.744Z,12.27
2022-09-18T08:06:42.581Z,12.14
2022-09-18T08:09:28.447Z,11.89
2022-09-18T08:12:27.734Z,11.64
2022-09-18T08:15:31.457Z,11.63
2022-09-18T08:18:32.268Z,11.62
2022-09-18T08:21:26.942Z,11.51
2022-09-18T08:24:10.312Z,11.50
2022-09-18T08:26:43.293Z,11.33
2022-09-18T08:29:22.348Z,11.40
2022-09-18T08:35:05.116Z,11.44
2022-09-18T08:37:36.213Z,11.45
2022-09-18T08:40:34.693Z,11.56
2022-09-18T08:43:19.466Z,11.44
2022-09-18T08:46:09.811Z,11.49
2022-09-18T08:48:59.632Z,11.41
2022-09-18T08:51:44.591Z,11.37
2022-09-18T08:54:24.100Z,11.44
2022-09-18T08:57:27.994Z,11.46
2022-09-18T09:00:24.341Z,11.54
2022-09-18T09:03:35.800Z,11.62
2022-09-18T09:06:36.942Z,11.66
2022-09-18T09:09:43.546Z,11.82
2022-09-18T09:12:35.168Z,11.91
2022-09-18T09:15:26.123Z,11.93
2022-09-18T09:21:25.158Z,12.16
2022-09-18T09:24:17.334Z,12.58
2022-09-18T09:27:50.443Z,12.80
2022-09-18T09:30:46.618Z,12.66
2022-09-18T09:34:32.490Z,12.54
2022-09-18T09:37:44.225Z,12.23
2022-09-18T09:41:06.957Z,12.21
2022-09-18T09:43:54.369Z,12.11
2022-09-18T09:46:58.975Z,12.03
2022-09-18T09:50:15.340Z,12.04
2022-09-18T09:52:59.704Z,11.94
2022-09-18T09:55:47.423Z,11.92
2022-09-18T09:58:54.510Z,11.99
2022-09-18T10:02:01.324Z,12.10
2022-09-18T10:04:54.945Z,12.15
2022-09-18T10:07:55.092Z,12.14
2022-09-18T10:10:34.622Z,12.31
2022-09-18T10:13:25.732Z,12.31
2022-09-18T10:16:17.228Z,12.19
2022-09-18T10:18:59.786Z,12.16
2022-09-18T10:21:41.758Z,12.08
2022-09-18T10:24:21.837Z,12.21
2022-09-18T10:27:15.611Z,12.39
2022-09-18T10:29:46.151Z,12.48
2022-09-18T10:32:42.354Z,12.61
2022-09-18T10:35:29.306Z,12.68
2022-09-18T10:38:25.349Z,12.81
2022-09-18T10:40:54.901Z,12.79
2022-09-18T10:43:28.830Z,12.88
2022-09-18T10:46:07.343Z,12.78
2022-09-18T10:48:58.765Z,12.93
2022-09-18T10:51:34.188Z,12.95
2022-09-18T10:54:23.283Z,12.90
2022-09-18T10:57:34.636Z,13.06
2022-09-18T11:00:50.949Z,13.22
2022-09-18T11:03:42.771Z,13.25
2022-09-18T11:06:25.873Z,13.27
2022-09-18T11:09:08.501Z,13.07
2022-09-18T11:15:19.575Z,13.11
2022-09-18T11:17:58.508Z,12.96
2022-09-18T11:23:30.343Z,12.94
2022-09-18T11:26:15.827Z,13.34
2022-09-18T11:29:10.643Z,13.98
2022-09-18T11:32:28.534Z,14.39
2022-09-18T11:35:20.578Z,14.62
2022-09-18T11:38:14.906Z,14.71
2022-09-18T11:40:57.896Z,14.82
2022-09-18T11:43:44.842Z,14.53
2022-09-18T11:46:39.162Z,14.46
2022-09-18T11:49:25.701Z,14.43
2022-09-18T11:52:35.503Z,14.82
2022-09-18T11:55:35.556Z,15.10
2022-09-18T11:58:31.580Z,15.16
2022-09-18T12:01:36.871Z,14.94
2022-09-18T12:04:13.694Z,14.81
2022-09-18T12:06:53.709Z,14.85
2022-09-18T12:09:45.160Z,14.58
2022-09-18T12:12:32.818Z,14.82
2022-09-18T12:15:24.308Z,15.03
2022-09-18T12:18:03.026Z,15.07
2022-09-18T12:20:42.445Z,14.90
2022-09-18T12:23:23.203Z,14.80
2022-09-18T12:26:06.021Z,15.01
2022-09-18T12:28:51.344Z,15.09
2022-09-18T12:31:43.496Z,15.15
2022-09-18T12:34:23.116Z,15.25
2022-09-18T12:37:31.718Z,15.45
2022-09-18T12:40:22.870Z,15.55
2022-09-18T12:43:09.230Z,15.26
2022-09-18T12:46:17.725Z,14.85
2022-09-18T12:49:02.537Z,14.75
2022-09-18T12:51:42.356Z,14.48
2022-09-18T12:54:40.037Z,14.54
2022-09-18T12:57:30.759Z,15.14
2022-09-18T13:00:14.879Z,15.26
2022-09-18T13:03:14.988Z,15.16
2022-09-18T13:06:06.421Z,15.31
2022-09-18T13:09:07.219Z,15.44
2022-09-18T13:11:49.222Z,15.79
2022-09-18T13:14:38.952Z,16.04
2022-09-18T13:17:43.899Z,15.55
2022-09-18T13:20:36.547Z,15.53
2022-09-18T13:23:23.339Z,15.06
2022-09-18T13:26:07.412Z,15.29
2022-09-18T13:28:41.624Z,15.49
2022-09-18T13:31:31.016Z,15.55
2022-09-18T13:34:10.375Z,15.82
2022-09-18T13:36:46.215Z,16.07
2022-09-18T13:39:46.003Z,15.83
2022-09-18T13:42:48.813Z,15.30
2022-09-18T13:45:26.320Z,15.11
2022-09-18T13:48:06.660Z,15.16
2022-09-18T13:50:37.926Z,15.27
2022-09-18T13:53:33.556Z,15.79
2022-09-18T13:56:19.229Z,15.84
2022-09-18T13:59:04.434Z,15.64
2022-09-18T14:01:40.496Z,15.51
2022-09-18T14:04:46.929Z,14.94
2022-09-18T14:07:28.761Z,14.40
2022-09-18T14:10:20.138Z,14.00
2022-09-18T14:13:08.941Z,13.92
2022-09-18T14:15:59.557Z,14.22
2022-09-18T14:18:52.882Z,13.95
2022-09-18T14:21:28.124Z,13.68
2022-09-18T14:24:28.055Z,13.74
2022-09-18T14:27:26.844Z,13.75
2022-09-18T14:30:07.646Z,14.18
2022-09-18T14:33:05.406Z,14.62
2022-09-18T14:36:05.409Z,14.92
2022-09-18T14:38:47.557Z,15.25
2022-09-18T14:41:35.557Z,15.45
2022-09-18T14:44:26.057Z,15.57
2022-09-18T14:47:08.370Z,15.52
2022-09-18T14:49:53.021Z,15.63
2022-09-18T14:52:31.037Z,15.63
2022-09-18T14:55:19.542Z,15.86
2022-09-18T14:58:00.563Z,16.00
2022-09-18T15:00:40.651Z,15.92
2022-09-18T15:03:22.173Z,15.99
2022-09-18T15:06:19.980Z,16.05
2022-09-18T15:08:57.952Z,16.23
2022-09-18T15:12:00.982Z,15.79
2022-09-18T15:14:42.755Z,15.52
2022-09-18T15:17:42.708Z,15.39
2022-09-18T15:20:26.874Z,15.16
2022-09-18T15:23:18.605Z,14.85
2022-09-18T15:26:02.146Z,14.51
2022-09-18T15:28:46.398Z,14.28
2022-09-18T15:31:39.040Z,14.20
2022-09-18T15:34:23.941Z,14.66
2022-09-18T15:37:06.227Z,15.78
2022-09-18T15:39:42.554Z,16.80
2022-09-18T15:42:35.944Z,17.26
2022-09-18T15:45:21.233Z,17.34
2022-09-18T15:47:59.508Z,17.75
2022-09-18T15:50:51.425Z,17.34
2022-09-18T15:53:27.802Z,17.29
2022-09-18T15:56:20.053Z,16.60
2022-09-18T15:59:00.329Z,16.19
2022-09-18T16:01:46.715Z,16.68
2022-09-18T16:04:39.877Z,16.85
2022-09-18T16:07:40.243Z,15.88
2022-09-18T16:10:35.164Z,15.00
2022-09-18T16:13:27.257Z,14.47
2022-09-18T16:16:11.961Z,14.14
2022-09-18T16:19:14.373Z,13.96
2022-09-18T16:22:00.121Z,13.73
2022-09-18T16:24:40.736Z,13.66
2022-09-18T16:27:22.230Z,13.38
2022-09-18T16:29:59.211Z,13.10
2022-09-18T16:32:38.534Z,13.06
2022-09-18T16:35:16.477Z,12.95
2022-09-18T16:37:52.744Z,12.90
2022-09-18T16:40:33.798Z,12.70
2022-09-18T16:43:18.917Z,12.66
2022-09-18T16:45:54.833Z,12.46
2022-09-18T16:48:31.090Z,12.33
2022-09-18T16:51:15.290Z,12.28
2022-09-18T16:53:50.957Z,12.19
2022-09-18T16:56:29.552Z,12.11
2022-09-18T16:59:06.276Z,12.04
2022-09-18T17:02:02.456Z,12.01
2022-09-18T17:04:37.094Z,11.93
2022-09-18T17:07:17.040Z,11.87
2022-09-18T17:09:56.537Z,11.85
2022-09-18T17:12:37.266Z,11.80
2022-09-18T17:15:18.541Z,11.65
2022-09-18T17:17:56.648Z,11.68
2022-09-18T17:20:33.319Z,11.65
2022-09-18T17:23:09.040Z,11.61
2022-09-18T17:25:46.960Z,11.49
2022-09-18T17:28:21.701Z,11.47
2022-09-18T17:31:00.186Z,11.51
2022-09-18T17:33:40.994Z,11.47
2022-09-18T17:36:18.189Z,11.44
2022-09-18T17:38:46.920Z,11.33
2022-09-18T17:41:33.550Z,11.28
2022-09-18T17:44:10.390Z,11.30
2022-09-18T17:46:48.618Z,11.25
2022-09-18T17:49:22.888Z,11.26
2022-09-18T17:52:02.714Z,11.16
2022-09-18T17:54:44.827Z,11.10
2022-09-18T17:57:20.077Z,11.07
2022-09-18T17:59:55.300Z,11.00
2022-09-18T18:02:31.793Z,10.93
2022-09-18T18:05:02.993Z,10.88
2022-09-18T18:07:35.614Z,10.82
2022-09-18T18:10:16.691Z,10.84
2022-09-18T18:12:58.106Z,10.84
2022-09-18T18:15:36.476Z,10.78
2022-09-18T18:18:19.750Z,10.87
2022-09-18T18:21:00.969Z,10.89
2022-09-18T18:23:42.273Z,10.88
2022-09-18T18:26:18.846Z,10.86
2022-09-18T18:28:57.411Z,10.99
2022-09-18T18:31:47.354Z,11.04
2022-09-18T18:34:28.022Z,11.16
2022-09-18T18:37:05.485Z,11.26
2022-09-18T18:39:48.436Z,11.32
2022-09-18T18:42:28.376Z,11.37
2022-09-18T18:45:04.513Z,11.38
2022-09-18T18:47:49.960Z,11.22
2022-09-18T18:50:42.838Z,11.32
2022-09-18T18:53:17.665Z,11.29
2022-09-18T18:55:54.480Z,11.28
2022-09-18T18:58:34.975Z,11.25
2022-09-18T19:01:11.740Z,11.26
2022-09-18T19:03:55.714Z,11.27
2022-09-18T19:06:27.215Z,11.33
2022-09-18T19:09:03.502Z,11.32
2022-09-18T19:11:50.679Z,11.25
2022-09-18T19:14:40.423Z,11.32
2022-09-18T19:17:27.329Z,11.29
2022-09-18T19:20:04.105Z,11.29
2022-09-18T19:22:43.513Z,11.28
2022-09-18T19:25:20.030Z,11.17
2022-09-18T19:27:56.531Z,11.08
2022-09-18T19:30:29.615Z,11.02
2022-09-18T19:33:12.086Z,10.92
2022-09-18T19:35:53.496Z,10.78
2022-09-18T19:38:46.936Z,10.62
2022-09-18T19:42:01.423Z,10.48
2022-09-18T19:44:48.742Z,10.49
2022-09-18T19:47:28.395Z,10.40
2022-09-18T19:49:59.916Z,10.61
2022-09-18T19:52:44.450Z,10.51
2022-09-18T19:55:25.802Z,10.79
2022-09-18T19:58:04.109Z,10.87
2022-09-18T20:00:39.977Z,10.93
2022-09-18T20:03:15.510Z,10.97
2022-09-18T20:05:52.136Z,10.97
2022-09-18T20:08:25.064Z,10.94
2022-09-18T20:11:08.843Z,10.97
2022-09-18T20:13:50.537Z,11.01
2022-09-18T20:16:28.683Z,11.13
2022-09-18T20:19:07.867Z,11.10
2022-09-18T20:21:37.993Z,11.19
2022-09-18T20:24:30.419Z,11.20
2022-09-18T20:27:08.042Z,11.19
2022-09-18T20:29:43.807Z,11.25
2022-09-18T20:32:16.536Z,11.23
2022-09-18T20:34:54.983Z,11.16
2022-09-18T20:37:32.931Z,11.11
2022-09-18T20:40:09.939Z,11.12
2022-09-18T20:42:47.761Z,11.19
2022-09-18T20:45:23.237Z,11.17
2022-09-18T20:47:59.821Z,11.22
2022-09-18T20:50:35.351Z,11.21
2022-09-18T20:53:10.822Z,11.20
2022-09-18T20:55:37.811Z,11.19
2022-09-18T20:58:10.843Z,11.23
2022-09-18T21:00:53.854Z,11.22
2022-09-18T21:03:30.564Z,11.26
2022-09-18T21:06:22.412Z,11.23
2022-09-18T21:08:55.081Z,11.18
2022-09-18T21:11:36.459Z,11.23
2022-09-18T21:14:19.825Z,11.25
2022-09-18T21:16:53.284Z,11.24
2022-09-18T21:19:26.835Z,11.24
2022-09-18T21:22:02.501Z,11.38
2022-09-18T21:24:35.426Z,11.38
2022-09-18T21:27:13.712Z,11.37
2022-09-18T21:29:51.879Z,11.33
2022-09-18T21:32:24.499Z,11.31
2022-09-18T21:35:03.295Z,11.27
2022-09-18T21:37:49.543Z,11.30
2022-09-18T21:40:23.906Z,11.43
2022-09-18T21:43:05.561Z,11.44
2022-09-18T21:45:52.490Z,11.51
2022-09-18T21:48:37.450Z,11.56
2022-09-18T21:51:12.173Z,11.61
2022-09-18T21:53:53.570Z,11.61
2022-09-18T21:56:28.804Z,11.58
2022-09-18T21:59:07.417Z,11.54
2022-09-18T22:01:50.378Z,11.59
2022-09-18T22:04:35.704Z,11.68
2022-09-18T22:07:13.563Z,11.58
2022-09-18T22:09:50.859Z,11.59
2022-09-18T22:12:29.168Z,11.57
2022-09-18T22:15:01.388Z,11.57
2022-09-18T22:17:36.295Z,11.69
2022-09-18T22:20:09.097Z,11.73
2022-09-18T22:22:46.431Z,11.71
2022-09-18T22:25:19.430Z,11.72
2022-09-18T22:27:56.742Z,11.80
2022-09-18T22:30:34.429Z,11.72
2022-09-18T22:33:16.854Z,11.78
2022-09-18T22:36:04.761Z,11.74
2022-09-18T22:38:36.691Z,11.90
2022-09-18T22:41:09.838Z,11.87
2022-09-18T22:43:51.611Z,11.89
2022-09-18T22:46:25.364Z,11.78
2022-09-18T22:49:09.669Z,11.81
2022-09-18T22:51:54.706Z,11.83
2022-09-18T22:54:29.539Z,11.92
2022-09-18T22:57:16.614Z,12.02
2022-09-18T22:59:54.984Z,12.09
2022-09-18T23:02:38.809Z,12.02
2022-09-18T23:05:09.257Z,12.11
2022-09-18T23:07:46.438Z,12.08
2022-09-18T23:10:22.821Z,12.10
2022-09-18T23:13:05.383Z,12.01
2022-09-18T23:15:38.471Z,12.09
2022-09-18T23:18:15.609Z,12.08
2022-09-18T23:20:51.751Z,12.06
2022-09-18T23:23:28.833Z,12.09
2022-09-18T23:26:13.826Z,12.03
2022-09-18T23:28:47.508Z,12.04
2022-09-18T23:31:27.504Z,12.04
2022-09-18T23:34:00.702Z,12.11
2022-09-18T23:36:36.123Z,12.07
2022-09-18T23:39:11.177Z,12.08
2022-09-18T23:41:50.242Z,12.07
2022-09-18T23:44:29.484Z,12.13
2022-09-18T23:47:02.981Z,12.14
2022-09-18T23:49:35.645Z,12.13
2022-09-18T23:52:10.649Z,12.14
2022-09-18T23:54:51.181Z,12.12
2022-09-18T23:57:34.454Z,12.07
